createdAt,value
2022-11-28T00:01:36.260Z,100429.75
2022-11-28T00:04:05.460Z,100436.56
2022-11-28T00:06:38.022Z,100442.78
2022-11-28T00:09:07.022Z,100446.91
2022-11-28T00:11:35.041Z,100443.22
2022-11-28T00:14:03.014Z,100432.69
2022-11-28T00:16:31.085Z,100443.81
2022-11-28T00:19:01.091Z,100426.59
2022-11-28T00:21:29.474Z,100446.38
2022-11-28T00:24:00.097Z,100441.91
2022-11-28T00:26:31.098Z,100438.41
2022-11-28T00:29:00.027Z,100438.34
2022-11-28T00:31:29.628Z,100433.16
2022-11-28T00:33:58.005Z,100424.22
2022-11-28T00:36:26.799Z,100437.09
2022-11-28T00:38:54.941Z,100437.56
2022-11-28T00:41:27.053Z,100430.72
2022-11-28T00:43:55.074Z,100430.47
2022-11-28T00:46:23.908Z,100432.59
2022-11-28T00:48:52.083Z,100425.03
2022-11-28T00:51:22.703Z,100404.13
2022-11-28T00:53:53.122Z,100424.13
2022-11-28T00:56:23.741Z,100421.44
2022-11-28T00:58:53.274Z,100425.25
2022-11-28T01:01:23.496Z,100418.66
2022-11-28T01:03:53.551Z,100414.66
2022-11-28T01:06:24.234Z,100417.16
2022-11-28T01:08:52.944Z,100414.13
2022-11-28T01:11:21.221Z,100405.81
2022-11-28T01:13:49.620Z,100410.75
2022-11-28T01:16:18.959Z,100410.06
2022-11-28T01:18:46.997Z,100413.78
2022-11-28T01:21:15.195Z,100406.00
2022-11-28T01:23:43.222Z,100411.41
2022-11-28T01:26:16.134Z,100407.66
2022-11-28T01:28:44.169Z,100405.84
2022-11-28T01:31:16.632Z,100413.56
2022-11-28T01:33:46.430Z,100388.03
2022-11-28T01:36:15.088Z,100403.41
2022-11-28T01:38:43.253Z,100408.00
2022-11-28T01:41:12.028Z,100411.16
2022-11-28T01:43:58.751Z,100407.22
2022-11-28T01:46:26.854Z,100404.34
2022-11-28T01:49:00.613Z,100394.31
2022-11-28T01:51:29.381Z,100403.44
2022-11-28T01:53:57.820Z,100395.34
2022-11-28T01:56:29.878Z,100397.25
2022-11-28T01:59:03.563Z,100396.50
2022-11-28T02:01:32.275Z,100392.50
2022-11-28T02:04:01.733Z,100388.91
2022-11-28T02:06:29.833Z,100381.91
2022-11-28T02:08:57.741Z,100379.03
2022-11-28T02:11:56.108Z,100384.94
2022-11-28T02:14:40.590Z,100368.31
2022-11-28T02:17:20.224Z,100384.34
2022-11-28T02:20:25.359Z,100372.13
2022-11-28T02:23:02.143Z,100381.06
2022-11-28T02:25:55.519Z,100375.63
2022-11-28T02:28:47.498Z,100370.72
2022-11-28T02:31:34.552Z,100370.75
2022-11-28T02:34:11.196Z,100370.88
2022-11-28T02:36:47.230Z,100375.06
2022-11-28T02:39:24.598Z,100381.13
2022-11-28T02:41:59.113Z,100374.53
2022-11-28T02:44:35.097Z,100387.50
2022-11-28T02:47:09.885Z,100382.53
2022-11-28T02:49:46.749Z,100385.63
2022-11-28T02:52:19.022Z,100379.72
2022-11-28T02:54:48.641Z,100378.94
2022-11-28T02:57:16.633Z,100381.41
2022-11-28T02:59:51.955Z,100378.03
2022-11-28T03:02:28.995Z,100385.88
2022-11-28T03:05:09.493Z,100384.44
2022-11-28T03:07:53.986Z,100374.53
2022-11-28T03:10:30.708Z,100384.50
2022-11-28T03:13:08.947Z,100389.03
2022-11-28T03:15:45.852Z,100365.25
2022-11-28T03:18:21.523Z,100387.13
2022-11-28T03:20:58.006Z,100380.22
2022-11-28T03:23:34.145Z,100349.34
2022-11-28T03:26:09.035Z,100378.69
2022-11-28T03:28:43.771Z,100367.75
2022-11-28T03:31:16.590Z,100376.75
2022-11-28T03:33:51.941Z,100382.31
2022-11-28T03:36:26.131Z,100379.47
2022-11-28T03:39:00.861Z,100373.66
2022-11-28T03:41:35.059Z,100387.47
2022-11-28T03:44:08.097Z,100364.88
2022-11-28T03:46:39.526Z,100379.34
2022-11-28T03:49:09.977Z,100376.94
2022-11-28T03:51:43.935Z,100384.63
2022-11-28T03:54:15.786Z,100379.44
2022-11-28T03:56:49.942Z,100368.16
2022-11-28T03:59:21.615Z,100378.44
2022-11-28T04:01:57.781Z,100382.44
2022-11-28T04:04:31.633Z,100381.06
2022-11-28T04:07:10.057Z,100378.09
2022-11-28T04:09:44.828Z,100383.06
2022-11-28T04:12:21.207Z,100383.56
2022-11-28T04:14:54.832Z,100383.47
2022-11-28T04:17:31.317Z,100394.50
2022-11-28T04:20:05.440Z,100396.31
2022-11-28T04:22:39.277Z,100400.34
2022-11-28T04:25:10.776Z,100397.03
2022-11-28T04:27:42.764Z,100401.44
2022-11-28T04:30:13.289Z,100406.88
2022-11-28T04:32:47.252Z,100403.22
2022-11-28T04:35:20.737Z,100402.31
2022-11-28T04:37:53.357Z,100408.47
2022-11-28T04:40:24.775Z,100409.41
2022-11-28T04:42:57.658Z,100395.94
2022-11-28T04:45:31.234Z,100401.63
2022-11-28T04:47:59.527Z,100402.00
2022-11-28T04:50:38.726Z,100402.13
2022-11-28T04:53:13.543Z,100406.00
2022-11-28T04:55:47.697Z,100407.38
2022-11-28T04:58:19.573Z,100397.03
2022-11-28T05:00:50.822Z,100412.88
2022-11-28T05:03:19.517Z,100396.25
2022-11-28T05:05:49.962Z,100370.22
2022-11-28T05:08:20.176Z,100413.53
2022-11-28T05:10:48.619Z,100406.63
2022-11-28T05:13:17.129Z,100418.50
2022-11-28T05:15:45.115Z,100423.41
2022-11-28T05:18:13.062Z,100403.81
2022-11-28T05:20:41.724Z,100411.84
2022-11-28T05:23:10.005Z,100413.94
2022-11-28T05:25:40.832Z,100403.25
2022-11-28T05:28:10.631Z,100409.03
2022-11-28T05:30:38.791Z,100411.97
2022-11-28T05:33:06.795Z,100402.03
2022-11-28T05:35:34.807Z,100410.03
2022-11-28T05:38:02.719Z,100403.56
2022-11-28T05:40:30.672Z,100408.13
2022-11-28T05:42:59.924Z,100397.97
2022-11-28T05:45:27.875Z,100408.75
2022-11-28T05:47:55.751Z,100396.94
2022-11-28T05:50:23.658Z,100407.00
2022-11-28T05:52:51.646Z,100412.75
2022-11-28T05:55:19.614Z,100399.13
2022-11-28T05:57:47.610Z,100391.13
2022-11-28T06:00:18.167Z,100407.69
2022-11-28T06:02:46.058Z,100409.19
2022-11-28T06:05:35.104Z,100410.53
2022-11-28T06:08:02.098Z,100405.75
2022-11-28T06:10:30.151Z,100412.63
2022-11-28T06:12:58.068Z,100419.50
2022-11-28T06:15:27.338Z,100418.19
2022-11-28T06:17:55.297Z,100421.97
2022-11-28T06:20:23.149Z,100420.50
2022-11-28T06:22:51.102Z,100426.03
2022-11-28T06:25:19.216Z,100420.84
2022-11-28T06:27:47.656Z,100429.47
2022-11-28T06:30:15.968Z,100432.13
2022-11-28T06:32:45.268Z,100425.22
2022-11-28T06:35:13.287Z,100419.25
2022-11-28T06:37:41.214Z,100425.78
2022-11-28T06:40:09.908Z,100422.16
2022-11-28T06:42:38.262Z,100404.47
2022-11-28T06:45:07.146Z,100423.19
2022-11-28T06:47:35.100Z,100427.38
2022-11-28T06:50:04.663Z,100419.13
2022-11-28T06:52:32.730Z,100418.91
2022-11-28T06:55:00.642Z,100423.50
2022-11-28T06:57:28.900Z,100423.78
2022-11-28T06:59:56.856Z,100421.69
2022-11-28T07:02:25.369Z,100430.03
2022-11-28T07:04:53.408Z,100425.06
2022-11-28T07:07:22.824Z,100423.31
2022-11-28T07:09:52.115Z,100408.94
2022-11-28T07:12:20.054Z,100420.41
2022-11-28T07:14:48.082Z,100419.16
2022-11-28T07:17:16.106Z,100425.28
2022-11-28T07:19:44.289Z,100415.81
2022-11-28T07:22:12.513Z,100403.03
2022-11-28T07:24:41.777Z,100415.94
2022-11-28T07:27:09.785Z,100418.72
2022-11-28T07:29:37.796Z,100409.00
2022-11-28T07:32:06.669Z,100413.34
2022-11-28T07:34:35.261Z,100414.56
2022-11-28T07:37:03.568Z,100413.91
2022-11-28T07:39:31.530Z,100389.69
2022-11-28T07:42:00.864Z,100412.13
2022-11-28T07:44:28.852Z,100409.84
2022-11-28T07:46:56.946Z,100404.59
2022-11-28T07:49:24.834Z,100412.94
2022-11-28T07:51:52.709Z,100409.41
2022-11-28T07:54:20.681Z,100402.78
2022-11-28T07:59:37.982Z,100399.88
2022-11-28T08:02:06.161Z,100388.72
2022-11-28T08:04:34.404Z,100414.81
2022-11-28T08:07:02.353Z,100372.56
2022-11-28T08:09:30.462Z,100401.28
2022-11-28T08:11:58.797Z,100380.38
2022-11-28T08:14:26.933Z,100402.31
2022-11-28T08:16:56.192Z,100395.91
2022-11-28T08:19:24.698Z,100399.19
2022-11-28T08:21:52.957Z,100388.75
2022-11-28T08:24:20.941Z,100381.56
2022-11-28T08:26:48.863Z,100388.78
2022-11-28T08:29:16.785Z,100383.63
2022-11-28T08:31:44.758Z,100389.53
2022-11-28T08:34:14.116Z,100392.16
2022-11-28T08:36:43.461Z,100389.94
2022-11-28T08:39:27.797Z,100396.16
2022-11-28T08:41:58.872Z,100389.03
2022-11-28T08:44:30.431Z,100388.13
2022-11-28T08:46:58.639Z,100384.75
2022-11-28T08:49:28.038Z,100390.75
2022-11-28T08:51:55.968Z,100384.63
2022-11-28T08:54:24.068Z,100369.50
2022-11-28T08:56:52.009Z,100376.63
2022-11-28T08:59:20.307Z,100360.84
2022-11-28T09:01:48.339Z,100368.47
2022-11-28T09:04:17.252Z,100371.50
2022-11-28T09:06:46.880Z,100370.13
2022-11-28T09:09:15.097Z,100361.94
2022-11-28T09:11:43.623Z,100350.09
2022-11-28T09:14:12.107Z,100352.56
2022-11-28T09:16:41.163Z,100352.25
2022-11-28T09:19:11.072Z,100351.53
2022-11-28T09:21:39.251Z,100344.66
2022-11-28T09:24:10.522Z,100351.53
2022-11-28T09:26:38.547Z,100340.97
2022-11-28T09:29:09.010Z,100322.06
2022-11-28T09:31:36.976Z,100321.00
2022-11-28T09:34:05.068Z,100340.25
2022-11-28T09:36:33.879Z,100339.53
2022-11-28T09:39:02.762Z,100331.09
2022-11-28T09:41:42.398Z,100325.44
2022-11-28T09:44:19.256Z,100324.59
2022-11-28T09:46:49.438Z,100319.22
2022-11-28T09:49:39.915Z,100317.75
2022-11-28T09:52:22.466Z,100302.63
2022-11-28T09:54:58.723Z,100306.41
2022-11-28T09:57:35.637Z,100305.22
2022-11-28T10:00:05.450Z,100303.81
2022-11-28T10:02:38.897Z,100278.44
2022-11-28T10:05:15.941Z,100304.44
2022-11-28T10:07:59.474Z,100294.84
2022-11-28T10:10:35.259Z,100297.75
2022-11-28T10:13:14.805Z,100295.31
2022-11-28T10:15:52.074Z,100295.31
2022-11-28T10:18:34.869Z,100280.03
2022-11-28T10:21:08.349Z,100285.47
2022-11-28T10:23:40.249Z,100281.78
2022-11-28T10:26:13.763Z,100275.94
2022-11-28T10:28:44.830Z,100270.19
2022-11-28T10:31:18.246Z,100273.28
2022-11-28T10:33:54.304Z,100272.25
2022-11-28T10:36:25.717Z,100265.81
2022-11-28T10:38:53.689Z,100268.97
2022-11-28T10:41:29.274Z,100266.78
2022-11-28T10:44:04.440Z,100270.38
2022-11-28T10:46:47.720Z,100263.78
2022-11-28T10:49:32.286Z,100254.47
2022-11-28T10:52:08.580Z,100257.25
2022-11-28T10:55:01.774Z,100257.22
2022-11-28T10:57:37.772Z,100255.66
2022-11-28T11:00:13.510Z,100249.69
2022-11-28T11:02:45.445Z,100243.94
2022-11-28T11:05:15.711Z,100244.34
2022-11-28T11:07:49.400Z,100239.16
2022-11-28T11:10:19.496Z,100243.75
2022-11-28T11:12:48.685Z,100218.94
2022-11-28T11:15:24.407Z,100227.03
2022-11-28T11:17:52.945Z,100227.63
2022-11-28T11:20:36.842Z,100227.31
2022-11-28T11:23:14.612Z,100226.13
2022-11-28T11:25:55.467Z,100226.34
2022-11-28T11:28:40.931Z,100225.47
2022-11-28T11:31:18.386Z,100225.03
2022-11-28T11:33:46.865Z,100190.84
2022-11-28T11:36:27.207Z,100199.84
2022-11-28T11:39:18.091Z,100211.00
2022-11-28T11:41:47.953Z,100205.13
2022-11-28T11:44:34.190Z,100197.09
2022-11-28T11:47:05.591Z,100208.38
2022-11-28T11:49:36.014Z,100205.78
2022-11-28T11:52:08.261Z,100194.41
2022-11-28T11:54:37.302Z,100205.28
2022-11-28T11:57:31.325Z,100203.50
2022-11-28T11:59:57.137Z,100194.03
2022-11-28T12:02:32.704Z,100203.69
2022-11-28T12:05:05.675Z,100199.63
2022-11-28T12:07:40.347Z,100213.69
2022-11-28T12:10:15.492Z,100207.13
2022-11-28T12:12:43.510Z,100207.66
2022-11-28T12:15:28.191Z,100206.34
2022-11-28T12:18:13.406Z,100203.97
2022-11-28T12:21:02.598Z,100200.84
2022-11-28T12:23:57.032Z,100200.00
2022-11-28T12:26:34.857Z,100196.97
2022-11-28T12:29:16.155Z,100200.75
2022-11-28T12:31:57.011Z,100204.13
2022-11-28T12:34:36.197Z,100199.53
2022-11-28T12:37:11.084Z,100207.63
2022-11-28T12:39:51.744Z,100214.06
2022-11-28T12:42:43.829Z,100208.78
2022-11-28T12:45:33.683Z,100210.69
2022-11-28T12:48:13.447Z,100210.09
2022-11-28T12:50:46.739Z,100208.94
2022-11-28T12:53:40.929Z,100210.84
2022-11-28T12:56:29.945Z,100191.06
2022-11-28T12:59:04.482Z,100202.00
2022-11-28T13:01:45.458Z,100208.78
2022-11-28T13:04:30.452Z,100209.69
2022-11-28T13:07:06.998Z,100209.00
2022-11-28T13:09:38.365Z,100214.13
2022-11-28T13:12:23.219Z,100208.56
2022-11-28T13:14:55.406Z,100213.38
2022-11-28T13:17:36.611Z,100218.63
2022-11-28T13:20:14.875Z,100217.09
2022-11-28T13:22:55.875Z,100198.50
2022-11-28T13:25:32.304Z,100105.41
2022-11-28T13:28:07.884Z,100209.81
2022-11-28T13:30:43.159Z,100214.19
2022-11-28T13:33:39.081Z,100209.78
2022-11-28T13:38:35.147Z,100205.50
2022-11-28T13:39:13.760Z,100175.13
2022-11-28T13:44:44.404Z,100212.22
2022-11-28T13:47:27.801Z,100193.81
2022-11-28T13:50:28.867Z,100203.81
2022-11-28T13:53:00.557Z,100193.41
2022-11-28T13:55:46.730Z,100201.72
2022-11-28T13:58:34.077Z,100203.41
2022-11-28T14:01:10.129Z,100194.03
2022-11-28T14:03:47.124Z,100196.66
2022-11-28T14:06:18.087Z,100190.47
2022-11-28T14:08:50.039Z,100195.25
2022-11-28T14:11:59.725Z,100187.34
2022-11-28T14:14:59.785Z,100187.50
2022-11-28T14:17:44.678Z,100191.59
2022-11-28T14:20:23.773Z,100195.22
2022-11-28T14:23:08.342Z,100170.16
2022-11-28T14:25:42.238Z,100197.84
2022-11-28T14:28:22.011Z,100202.22
2022-11-28T14:30:52.693Z,100196.94
2022-11-28T14:33:24.806Z,100194.03
2022-11-28T14:36:25.339Z,100199.78
2022-11-28T14:39:12.988Z,100200.09
2022-11-28T14:42:44.061Z,100197.56
2022-11-28T14:45:39.093Z,100194.03
2022-11-28T14:48:30.981Z,100202.91
2022-11-28T14:51:02.123Z,100194.50
2022-11-28T14:53:45.792Z,100191.88
2022-11-28T14:56:29.202Z,100193.19
2022-11-28T14:58:59.845Z,100191.84
2022-11-28T15:01:49.558Z,100197.34
2022-11-28T15:04:38.172Z,100197.34
2022-11-28T15:07:23.436Z,100189.56
2022-11-28T15:10:07.221Z,100193.09
2022-11-28T15:12:47.518Z,100189.94
2022-11-28T15:15:17.499Z,100194.44
2022-11-28T15:17:51.438Z,100193.84
2022-11-28T15:20:27.917Z,100188.44
2022-11-28T15:22:55.911Z,100184.44
2022-11-28T15:25:26.294Z,100195.09
2022-11-28T15:27:55.457Z,100190.47
2022-11-28T15:30:26.850Z,100185.06
2022-11-28T15:32:58.254Z,100176.34
2022-11-28T15:35:28.874Z,100201.16
2022-11-28T15:37:59.114Z,100188.03
2022-11-28T15:40:30.121Z,100184.59
2022-11-28T15:42:59.680Z,100182.56
2022-11-28T15:45:30.015Z,100187.78
2022-11-28T15:47:58.882Z,100187.91
2022-11-28T15:50:30.142Z,100180.88
2022-11-28T15:52:59.554Z,100192.75
2022-11-28T15:55:30.325Z,100193.25
2022-11-28T15:58:12.032Z,100194.03
2022-11-28T16:00:42.948Z,100187.72
2022-11-28T16:03:16.699Z,100200.44
2022-11-28T16:05:47.275Z,100187.56
2022-11-28T16:08:23.469Z,100192.06
2022-11-28T16:10:51.542Z,100196.31
2022-11-28T16:13:24.874Z,100192.78
2022-11-28T16:15:56.061Z,100194.94
2022-11-28T16:18:26.610Z,100192.16
2022-11-28T16:20:56.793Z,100190.53
2022-11-28T16:23:30.181Z,100193.69
2022-11-28T16:26:05.189Z,100195.53
2022-11-28T16:28:36.337Z,100180.44
2022-11-28T16:31:12.256Z,100173.28
2022-11-28T16:33:41.894Z,100192.38
2022-11-28T16:36:19.211Z,100193.75
2022-11-28T16:38:48.296Z,100176.97
2022-11-28T16:41:18.683Z,100198.41
2022-11-28T16:43:50.528Z,100196.81
2022-11-28T16:46:22.853Z,100198.94
2022-11-28T16:48:55.212Z,100195.41
2022-11-28T16:51:39.236Z,100201.97
2022-11-28T16:54:29.251Z,100201.97
2022-11-28T16:57:14.673Z,100193.59
2022-11-28T16:59:43.761Z,100197.88
2022-11-28T17:02:17.368Z,100192.06
2022-11-28T17:04:46.336Z,100196.50
2022-11-28T17:07:21.098Z,100173.72
2022-11-28T17:09:50.105Z,100176.50
2022-11-28T17:12:25.616Z,100195.00
2022-11-28T17:14:54.223Z,100183.19
2022-11-28T17:17:24.357Z,100200.09
2022-11-28T17:19:52.712Z,100142.03
2022-11-28T17:22:24.487Z,100193.09
2022-11-28T17:24:56.072Z,100187.91
2022-11-28T17:27:24.257Z,100196.09
2022-11-28T17:29:52.196Z,100187.03
2022-11-28T17:32:20.371Z,100181.22
2022-11-28T17:34:48.216Z,100189.22
2022-11-28T17:37:16.532Z,100186.72
2022-11-28T17:40:05.968Z,100189.16
2022-11-28T17:42:33.985Z,100175.81
2022-11-28T17:45:09.193Z,100186.78
2022-11-28T17:47:37.187Z,100185.88
2022-11-28T17:50:05.984Z,100187.25
2022-11-28T17:52:34.468Z,100183.53
2022-11-28T17:55:27.889Z,100178.94
2022-11-28T17:57:55.771Z,100178.47
2022-11-28T18:00:24.154Z,100174.25
2022-11-28T18:02:52.073Z,100174.97
2022-11-28T18:05:19.912Z,100170.91
2022-11-28T18:11:02.643Z,100172.38
2022-11-28T18:13:30.572Z,100156.50
2022-11-28T18:15:58.507Z,100152.59
2022-11-28T18:18:26.502Z,100164.50
2022-11-28T18:20:54.642Z,100169.19
2022-11-28T18:23:22.705Z,100142.13
2022-11-28T18:25:52.095Z,100164.31
2022-11-28T18:28:21.057Z,100167.97
2022-11-28T18:30:49.344Z,100171.13
2022-11-28T18:33:17.811Z,100148.59
2022-11-28T18:35:45.730Z,100164.56
2022-11-28T18:38:13.710Z,100164.53
2022-11-28T18:40:43.662Z,100163.13
2022-11-28T18:43:13.083Z,100169.13
2022-11-28T18:45:41.138Z,100169.22
2022-11-28T18:48:12.340Z,100151.31
2022-11-28T18:50:40.418Z,100163.66
2022-11-28T18:53:11.434Z,100169.06
2022-11-28T18:55:39.496Z,100166.69
2022-11-28T18:58:07.443Z,100156.63
2022-11-28T19:00:36.753Z,100152.53
2022-11-28T19:03:06.949Z,100152.91
2022-11-28T19:05:39.142Z,100156.16
2022-11-28T19:08:07.354Z,100141.06
2022-11-28T19:10:38.625Z,100161.06
2022-11-28T19:13:09.121Z,100157.38
2022-11-28T19:15:41.757Z,100159.59
2022-11-28T19:18:10.108Z,100168.06
2022-11-28T19:20:43.532Z,100173.94
2022-11-28T19:23:11.554Z,100170.84
2022-11-28T19:25:39.886Z,100172.19
2022-11-28T19:28:08.080Z,100167.00
2022-11-28T19:30:35.995Z,100160.53
2022-11-28T19:33:05.474Z,100156.31
2022-11-28T19:35:34.457Z,100147.19
2022-11-28T19:38:02.559Z,100124.28
2022-11-28T19:40:30.447Z,100168.28
2022-11-28T19:42:58.449Z,100165.69
2022-11-28T19:45:26.453Z,100162.22
2022-11-28T19:47:54.497Z,100160.91
2022-11-28T19:50:23.749Z,100168.56
2022-11-28T19:52:51.708Z,100161.41
2022-11-28T19:55:19.745Z,100172.88
2022-11-28T19:57:47.762Z,100170.69
2022-11-28T20:00:17.051Z,100156.66
2022-11-28T20:02:45.111Z,100152.28
2022-11-28T20:05:13.036Z,100174.94
2022-11-28T20:07:42.528Z,100169.91
2022-11-28T20:10:11.022Z,100178.28
2022-11-28T20:12:38.957Z,100177.66
2022-11-28T20:15:12.617Z,100162.66
2022-11-28T20:17:45.262Z,100173.16
2022-11-28T20:20:13.379Z,100168.56
2022-11-28T20:22:42.802Z,100156.38
2022-11-28T20:25:10.756Z,100162.03
2022-11-28T20:27:38.699Z,100173.75
2022-11-28T20:30:08.950Z,100177.09
2022-11-28T20:32:36.924Z,100178.00
2022-11-28T20:35:05.065Z,100173.25
2022-11-28T20:37:32.976Z,100183.25
2022-11-28T20:40:02.286Z,100167.69
2022-11-28T20:42:30.252Z,100166.44
2022-11-28T20:44:58.321Z,100184.50
2022-11-28T20:47:26.268Z,100183.53
2022-11-28T20:49:54.193Z,100167.44
2022-11-28T20:52:22.167Z,100186.22
2022-11-28T20:54:50.041Z,100182.72
2022-11-28T20:57:21.637Z,100178.50
2022-11-28T20:59:50.343Z,100151.06
2022-11-28T21:02:18.299Z,100171.50
2022-11-28T21:04:46.462Z,100170.38
2022-11-28T21:07:14.490Z,100169.53
2022-11-28T21:09:42.723Z,100164.63
2022-11-28T21:12:10.974Z,100170.78
2022-11-28T21:14:40.303Z,100045.09
2022-11-28T21:17:08.679Z,100158.06
2022-11-28T21:19:36.626Z,100159.88
2022-11-28T21:22:04.561Z,100156.91
2022-11-28T21:24:32.610Z,100144.09
2022-11-28T21:27:00.543Z,100155.59
2022-11-28T21:29:28.512Z,100159.16
2022-11-28T21:31:57.890Z,100160.53
2022-11-28T21:34:25.998Z,100162.03
2022-11-28T21:36:55.357Z,100162.03
2022-11-28T21:39:23.501Z,100158.19
2022-11-28T21:41:52.064Z,100155.38
2022-11-28T21:44:20.206Z,100160.16
2022-11-28T21:46:48.153Z,100162.00
2022-11-28T21:49:17.422Z,100157.34
2022-11-28T21:51:45.469Z,100161.69
2022-11-28T21:54:13.862Z,100159.31
2022-11-28T21:56:41.972Z,100154.41
2022-11-28T21:59:10.160Z,100155.53
2022-11-28T22:01:38.067Z,100155.38
2022-11-28T22:04:08.464Z,100152.78
2022-11-28T22:06:37.781Z,100145.94
2022-11-28T22:09:09.806Z,100139.56
2022-11-28T22:11:39.176Z,100144.41
2022-11-28T22:14:09.539Z,100141.75
2022-11-28T22:16:37.463Z,100137.97
2022-11-28T22:19:06.397Z,100105.25
2022-11-28T22:21:55.487Z,100134.81
2022-11-28T22:24:25.647Z,100131.53
2022-11-28T22:26:54.465Z,100122.47
2022-11-28T22:29:22.446Z,100128.19
2022-11-28T22:31:50.493Z,100129.13
2022-11-28T22:34:18.640Z,100138.44
2022-11-28T22:36:46.535Z,100132.22
2022-11-28T22:39:14.466Z,100126.41
2022-11-28T22:41:43.957Z,100129.00
2022-11-28T22:44:12.814Z,100128.94
2022-11-28T22:46:40.732Z,100132.97
2022-11-28T22:49:10.318Z,100122.00
2022-11-28T22:51:38.249Z,100116.06
2022-11-28T22:54:06.589Z,100122.00
2022-11-28T22:56:35.281Z,100114.50
2022-11-28T22:59:05.243Z,100110.59
2022-11-28T23:01:34.475Z,100088.69
2022-11-28T23:04:02.402Z,100103.81
2022-11-28T23:06:32.721Z,100092.88
2022-11-28T23:09:01.909Z,100090.28
2022-11-28T23:11:32.792Z,100096.81
2022-11-28T23:14:01.470Z,100067.91
2022-11-28T23:16:32.322Z,100077.34
2022-11-28T23:19:02.737Z,100093.09
2022-11-28T23:21:33.085Z,100093.09
2022-11-28T23:24:01.130Z,100088.91
2022-11-28T23:26:30.748Z,100082.19
2022-11-28T23:29:00.878Z,100071.97
2022-11-28T23:31:32.406Z,100084.34
2022-11-28T23:34:01.699Z,100080.69
2022-11-28T23:36:33.780Z,100060.44
2022-11-28T23:39:07.521Z,100073.44
2022-11-28T23:41:35.400Z,100074.03
2022-11-28T23:44:03.449Z,100071.66
2022-11-28T23:46:33.312Z,100070.66
2022-11-28T23:49:01.426Z,100070.34
2022-11-28T23:51:29.472Z,100075.19
2022-11-28T23:53:57.452Z,100070.00
2022-11-28T23:56:28.639Z,100069.38
2022-11-28T23:58:57.757Z,100066.94
